sensor_id;sensor_type;location;lat;lon;timestamp;P1;durP1;ratioP1;P2;durP2;ratioP2
32038;SDS011;18549;42.286;22.688;2022-10-28T00:02:02;14.03;;;7.60;;
32038;SDS011;18549;42.286;22.688;2022-10-28T00:04:29;14.17;;;7.57;;
32038;SDS011;18549;42.286;22.688;2022-10-28T00:06:56;13.83;;;7.43;;
32038;SDS011;18549;42.286;22.688;2022-10-28T00:09:27;11.50;;;7.47;;
32038;SDS011;18549;42.286;22.688;2022-10-28T00:11:54;14.97;;;8.20;;
32038;SDS011;18549;42.286;22.688;2022-10-28T00:14:21;14.63;;;7.93;;
32038;SDS011;18549;42.286;22.688;2022-10-28T00:16:47;10.63;;;7.67;;
32038;SDS011;18549;42.286;22.688;2022-10-28T00:19:15;19.47;;;8.17;;
32038;SDS011;18549;42.286;22.688;2022-10-28T00:21:42;12.57;;;9.47;;
32038;SDS011;18549;42.286;22.688;2022-10-28T00:24:11;18.33;;;10.37;;
32038;SDS011;18549;42.286;22.688;2022-10-28T00:26:40;15.97;;;8.33;;
32038;SDS011;18549;42.286;22.688;2022-10-28T00:29:08;18.80;;;9.77;;
32038;SDS011;18549;42.286;22.688;2022-10-28T00:31:38;11.37;;;8.80;;
32038;SDS011;18549;42.286;22.688;2022-10-28T00:34:06;12.67;;;9.73;;
32038;SDS011;18549;42.286;22.688;2022-10-28T00:36:37;17.73;;;9.67;;
32038;SDS011;18549;42.286;22.688;2022-10-28T00:39:08;16.10;;;8.53;;
32038;SDS011;18549;42.286;22.688;2022-10-28T00:41:38;11.77;;;8.00;;
32038;SDS011;18549;42.286;22.688;2022-10-28T00:47:26;14.20;;;7.90;;
32038;SDS011;18549;42.286;22.688;2022-10-28T00:50:02;12.90;;;8.07;;
32038;SDS011;18549;42.286;22.688;2022-10-28T00:52:37;19.33;;;10.20;;
32038;SDS011;18549;42.286;22.688;2022-10-28T00:55:05;15.47;;;9.37;;
32038;SDS011;18549;42.286;22.688;2022-10-28T00:57:35;13.77;;;7.83;;
32038;SDS011;18549;42.286;22.688;2022-10-28T01:00:04;13.40;;;7.90;;
32038;SDS011;18549;42.286;22.688;2022-10-28T01:02:33;12.87;;;8.63;;
32038;SDS011;18549;42.286;22.688;2022-10-28T01:05:06;19.90;;;8.70;;
32038;SDS011;18549;42.286;22.688;2022-10-28T01:07:34;15.97;;;8.90;;
32038;SDS011;18549;42.286;22.688;2022-10-28T01:10:01;14.87;;;8.00;;
32038;SDS011;18549;42.286;22.688;2022-10-28T01:12:29;17.90;;;9.23;;
32038;SDS011;18549;42.286;22.688;2022-10-28T01:15:03;19.83;;;9.00;;
32038;SDS011;18549;42.286;22.688;2022-10-28T01:17:45;21.87;;;10.33;;
32038;SDS011;18549;42.286;22.688;2022-10-28T01:20:40;15.30;;;10.10;;
32038;SDS011;18549;42.286;22.688;2022-10-28T01:23:21;12.97;;;8.80;;
32038;SDS011;18549;42.286;22.688;2022-10-28T01:26:10;12.63;;;8.93;;
32038;SDS011;18549;42.286;22.688;2022-10-28T01:29:12;18.83;;;8.93;;
32038;SDS011;18549;42.286;22.688;2022-10-28T01:31:57;14.87;;;9.67;;
32038;SDS011;18549;42.286;22.688;2022-10-28T01:34:31;23.13;;;12.13;;
32038;SDS011;18549;42.286;22.688;2022-10-28T01:37:05;22.23;;;15.37;;
32038;SDS011;18549;42.286;22.688;2022-10-28T01:39:40;20.37;;;12.97;;
32038;SDS011;18549;42.286;22.688;2022-10-28T01:42:17;21.17;;;12.50;;
32038;SDS011;18549;42.286;22.688;2022-10-28T01:44:51;22.57;;;12.47;;
32038;SDS011;18549;42.286;22.688;2022-10-28T01:47:27;23.60;;;12.83;;
32038;SDS011;18549;42.286;22.688;2022-10-28T01:49:58;20.17;;;11.83;;
32038;SDS011;18549;42.286;22.688;2022-10-28T01:52:29;17.03;;;10.73;;
32038;SDS011;18549;42.286;22.688;2022-10-28T01:54:59;15.53;;;10.13;;
32038;SDS011;18549;42.286;22.688;2022-10-28T01:57:34;16.43;;;9.27;;
32038;SDS011;18549;42.286;22.688;2022-10-28T02:00:04;19.63;;;9.17;;
32038;SDS011;18549;42.286;22.688;2022-10-28T02:02:34;17.93;;;9.00;;
32038;SDS011;18549;42.286;22.688;2022-10-28T02:05:04;21.70;;;9.27;;
32038;SDS011;18549;42.286;22.688;2022-10-28T02:07:52;19.03;;;10.23;;
32038;SDS011;18549;42.286;22.688;2022-10-28T02:10:25;12.77;;;8.97;;
32038;SDS011;18549;42.286;22.688;2022-10-28T02:12:58;13.67;;;8.37;;
32038;SDS011;18549;42.286;22.688;2022-10-28T02:15:31;12.00;;;8.17;;
32038;SDS011;18549;42.286;22.688;2022-10-28T02:18:17;13.70;;;8.77;;
32038;SDS011;18549;42.286;22.688;2022-10-28T02:20:52;16.63;;;10.30;;
32038;SDS011;18549;42.286;22.688;2022-10-28T02:23:27;20.03;;;9.90;;
32038;SDS011;18549;42.286;22.688;2022-10-28T02:26:06;17.10;;;11.20;;
32038;SDS011;18549;42.286;22.688;2022-10-28T02:28:40;15.73;;;10.00;;
32038;SDS011;18549;42.286;22.688;2022-10-28T02:31:17;16.80;;;9.70;;
32038;SDS011;18549;42.286;22.688;2022-10-28T02:33:53;16.93;;;8.90;;
32038;SDS011;18549;42.286;22.688;2022-10-28T02:36:23;15.97;;;9.27;;
32038;SDS011;18549;42.286;22.688;2022-10-28T02:38:53;13.00;;;8.97;;
32038;SDS011;18549;42.286;22.688;2022-10-28T02:41:24;18.57;;;9.37;;
32038;SDS011;18549;42.286;22.688;2022-10-28T02:43:56;21.90;;;9.60;;
32038;SDS011;18549;42.286;22.688;2022-10-28T02:46:26;17.63;;;9.80;;
32038;SDS011;18549;42.286;22.688;2022-10-28T02:48:59;17.00;;;9.57;;
32038;SDS011;18549;42.286;22.688;2022-10-28T02:51:28;15.23;;;10.67;;
32038;SDS011;18549;42.286;22.688;2022-10-28T02:54:03;18.73;;;9.43;;
32038;SDS011;18549;42.286;22.688;2022-10-28T02:56:35;22.53;;;11.10;;
32038;SDS011;18549;42.286;22.688;2022-10-28T02:59:07;22.07;;;10.87;;
32038;SDS011;18549;42.286;22.688;2022-10-28T03:01:37;17.90;;;11.20;;
32038;SDS011;18549;42.286;22.688;2022-10-28T03:04:09;18.43;;;10.30;;
32038;SDS011;18549;42.286;22.688;2022-10-28T03:06:36;18.23;;;9.63;;
32038;SDS011;18549;42.286;22.688;2022-10-28T03:09:03;19.03;;;10.53;;
32038;SDS011;18549;42.286;22.688;2022-10-28T03:11:29;19.23;;;11.53;;
32038;SDS011;18549;42.286;22.688;2022-10-28T03:13:56;23.73;;;12.37;;
32038;SDS011;18549;42.286;22.688;2022-10-28T03:16:29;22.47;;;13.40;;
32038;SDS011;18549;42.286;22.688;2022-10-28T03:18:55;21.43;;;13.00;;
32038;SDS011;18549;42.286;22.688;2022-10-28T03:21:27;25.00;;;14.50;;
32038;SDS011;18549;42.286;22.688;2022-10-28T03:23:54;19.27;;;11.63;;
32038;SDS011;18549;42.286;22.688;2022-10-28T03:26:21;26.40;;;12.07;;
32038;SDS011;18549;42.286;22.688;2022-10-28T03:28:48;33.70;;;14.57;;
32038;SDS011;18549;42.286;22.688;2022-10-28T03:31:18;24.77;;;13.80;;
32038;SDS011;18549;42.286;22.688;2022-10-28T03:33:45;19.40;;;12.10;;
32038;SDS011;18549;42.286;22.688;2022-10-28T03:36:15;22.10;;;12.20;;
32038;SDS011;18549;42.286;22.688;2022-10-28T03:38:43;18.23;;;12.17;;
32038;SDS011;18549;42.286;22.688;2022-10-28T03:41:10;20.97;;;11.80;;
32038;SDS011;18549;42.286;22.688;2022-10-28T03:43:37;23.47;;;11.53;;
32038;SDS011;18549;42.286;22.688;2022-10-28T03:46:03;25.43;;;12.60;;
32038;SDS011;18549;42.286;22.688;2022-10-28T03:48:32;29.20;;;12.67;;
32038;SDS011;18549;42.286;22.688;2022-10-28T03:50:59;18.70;;;12.20;;
32038;SDS011;18549;42.286;22.688;2022-10-28T03:53:26;16.80;;;12.77;;
32038;SDS011;18549;42.286;22.688;2022-10-28T03:55:54;28.17;;;12.87;;
32038;SDS011;18549;42.286;22.688;2022-10-28T03:58:23;21.63;;;12.57;;
32038;SDS011;18549;42.286;22.688;2022-10-28T04:00:51;20.37;;;11.67;;
32038;SDS011;18549;42.286;22.688;2022-10-28T04:03:20;24.40;;;11.90;;
32038;SDS011;18549;42.286;22.688;2022-10-28T04:05:48;23.83;;;11.90;;
32038;SDS011;18549;42.286;22.688;2022-10-28T04:08:16;19.03;;;11.97;;
32038;SDS011;18549;42.286;22.688;2022-10-28T04:10:43;38.03;;;18.63;;
32038;SDS011;18549;42.286;22.688;2022-10-28T04:13:12;39.03;;;18.47;;
32038;SDS011;18549;42.286;22.688;2022-10-28T04:15:39;45.93;;;28.40;;
32038;SDS011;18549;42.286;22.688;2022-10-28T04:18:08;28.33;;;17.00;;
32038;SDS011;18549;42.286;22.688;2022-10-28T04:20:35;25.73;;;14.73;;
32038;SDS011;18549;42.286;22.688;2022-10-28T04:23:02;22.53;;;13.90;;
32038;SDS011;18549;42.286;22.688;2022-10-28T04:25:30;23.03;;;14.00;;
32038;SDS011;18549;42.286;22.688;2022-10-28T04:27:57;44.17;;;13.53;;
32038;SDS011;18549;42.286;22.688;2022-10-28T04:30:25;50.80;;;14.60;;
32038;SDS011;18549;42.286;22.688;2022-10-28T04:32:52;27.27;;;17.60;;
32038;SDS011;18549;42.286;22.688;2022-10-28T04:35:19;31.20;;;18.67;;
32038;SDS011;18549;42.286;22.688;2022-10-28T04:37:48;36.83;;;21.70;;
32038;SDS011;18549;42.286;22.688;2022-10-28T04:40:17;40.33;;;20.47;;
32038;SDS011;18549;42.286;22.688;2022-10-28T04:42:46;33.57;;;20.23;;
32038;SDS011;18549;42.286;22.688;2022-10-28T04:45:13;36.70;;;18.40;;
32038;SDS011;18549;42.286;22.688;2022-10-28T04:47:42;31.27;;;19.10;;
32038;SDS011;18549;42.286;22.688;2022-10-28T04:50:08;28.40;;;18.60;;
32038;SDS011;18549;42.286;22.688;2022-10-28T04:52:35;31.10;;;17.80;;
32038;SDS011;18549;42.286;22.688;2022-10-28T04:55:02;25.73;;;13.37;;
32038;SDS011;18549;42.286;22.688;2022-10-28T04:57:30;36.93;;;17.47;;
32038;SDS011;18549;42.286;22.688;2022-10-28T04:59:57;33.03;;;18.43;;
32038;SDS011;18549;42.286;22.688;2022-10-28T05:02:24;33.20;;;20.73;;
32038;SDS011;18549;42.286;22.688;2022-10-28T05:04:52;33.50;;;19.30;;
32038;SDS011;18549;42.286;22.688;2022-10-28T05:07:19;36.70;;;19.83;;
32038;SDS011;18549;42.286;22.688;2022-10-28T05:09:46;32.53;;;21.70;;
32038;SDS011;18549;42.286;22.688;2022-10-28T05:12:13;38.03;;;19.47;;
32038;SDS011;18549;42.286;22.688;2022-10-28T05:14:39;34.00;;;19.17;;
32038;SDS011;18549;42.286;22.688;2022-10-28T05:17:07;42.37;;;24.87;;
32038;SDS011;18549;42.286;22.688;2022-10-28T05:19:34;39.73;;;20.57;;
32038;SDS011;18549;42.286;22.688;2022-10-28T05:22:02;36.37;;;20.40;;
32038;SDS011;18549;42.286;22.688;2022-10-28T05:24:29;46.07;;;22.20;;
32038;SDS011;18549;42.286;22.688;2022-10-28T05:26:57;50.63;;;20.97;;
32038;SDS011;18549;42.286;22.688;2022-10-28T05:29:26;38.90;;;21.03;;
32038;SDS011;18549;42.286;22.688;2022-10-28T05:31:53;51.83;;;21.87;;
32038;SDS011;18549;42.286;22.688;2022-10-28T05:34:20;45.43;;;21.67;;
32038;SDS011;18549;42.286;22.688;2022-10-28T05:36:47;47.17;;;22.43;;
32038;SDS011;18549;42.286;22.688;2022-10-28T05:39:16;44.37;;;22.67;;
32038;SDS011;18549;42.286;22.688;2022-10-28T05:41:43;44.80;;;22.10;;
32038;SDS011;18549;42.286;22.688;2022-10-28T05:44:12;56.40;;;23.77;;
32038;SDS011;18549;42.286;22.688;2022-10-28T05:46:38;40.93;;;23.67;;
32038;SDS011;18549;42.286;22.688;2022-10-28T05:49:08;42.53;;;21.67;;
32038;SDS011;18549;42.286;22.688;2022-10-28T05:51:35;56.57;;;21.50;;
32038;SDS011;18549;42.286;22.688;2022-10-28T05:54:02;44.47;;;21.67;;
32038;SDS011;18549;42.286;22.688;2022-10-28T05:56:31;52.33;;;22.10;;
32038;SDS011;18549;42.286;22.688;2022-10-28T05:58:57;41.83;;;22.53;;
32038;SDS011;18549;42.286;22.688;2022-10-28T06:01:25;36.20;;;22.03;;
32038;SDS011;18549;42.286;22.688;2022-10-28T06:03:52;53.10;;;24.50;;
32038;SDS011;18549;42.286;22.688;2022-10-28T06:06:27;44.33;;;23.03;;
32038;SDS011;18549;42.286;22.688;2022-10-28T06:08:54;45.77;;;20.97;;
32038;SDS011;18549;42.286;22.688;2022-10-28T06:11:21;42.80;;;22.50;;
32038;SDS011;18549;42.286;22.688;2022-10-28T06:13:49;48.70;;;22.43;;
32038;SDS011;18549;42.286;22.688;2022-10-28T06:16:16;34.50;;;20.67;;
32038;SDS011;18549;42.286;22.688;2022-10-28T06:18:43;45.80;;;25.40;;
32038;SDS011;18549;42.286;22.688;2022-10-28T06:21:09;59.10;;;33.07;;
32038;SDS011;18549;42.286;22.688;2022-10-28T06:23:36;68.83;;;38.40;;
32038;SDS011;18549;42.286;22.688;2022-10-28T06:26:03;50.83;;;32.97;;
32038;SDS011;18549;42.286;22.688;2022-10-28T06:28:31;56.13;;;30.40;;
32038;SDS011;18549;42.286;22.688;2022-10-28T06:31:06;48.57;;;24.40;;
32038;SDS011;18549;42.286;22.688;2022-10-28T06:33:46;37.43;;;18.13;;
32038;SDS011;18549;42.286;22.688;2022-10-28T06:36:19;37.67;;;17.97;;
32038;SDS011;18549;42.286;22.688;2022-10-28T06:38:45;45.60;;;20.63;;
32038;SDS011;18549;42.286;22.688;2022-10-28T06:41:15;49.73;;;18.93;;
32038;SDS011;18549;42.286;22.688;2022-10-28T06:43:41;44.87;;;20.93;;
32038;SDS011;18549;42.286;22.688;2022-10-28T06:46:10;43.77;;;22.00;;
32038;SDS011;18549;42.286;22.688;2022-10-28T06:48:37;50.97;;;22.57;;
32038;SDS011;18549;42.286;22.688;2022-10-28T06:51:05;57.33;;;22.57;;
32038;SDS011;18549;42.286;22.688;2022-10-28T06:53:32;31.17;;;19.53;;
32038;SDS011;18549;42.286;22.688;2022-10-28T06:55:59;30.77;;;17.43;;
32038;SDS011;18549;42.286;22.688;2022-10-28T06:58:25;23.53;;;13.73;;
32038;SDS011;18549;42.286;22.688;2022-10-28T07:00:52;18.80;;;12.60;;
32038;SDS011;18549;42.286;22.688;2022-10-28T07:03:21;28.13;;;11.23;;
32038;SDS011;18549;42.286;22.688;2022-10-28T07:05:48;14.07;;;9.53;;
32038;SDS011;18549;42.286;22.688;2022-10-28T07:08:15;29.67;;;8.77;;
32038;SDS011;18549;42.286;22.688;2022-10-28T07:10:43;21.43;;;9.00;;
32038;SDS011;18549;42.286;22.688;2022-10-28T07:13:09;27.17;;;8.17;;
32038;SDS011;18549;42.286;22.688;2022-10-28T07:15:36;24.93;;;8.03;;
32038;SDS011;18549;42.286;22.688;2022-10-28T07:18:04;14.00;;;6.87;;
32038;SDS011;18549;42.286;22.688;2022-10-28T07:20:32;10.53;;;6.50;;
32038;SDS011;18549;42.286;22.688;2022-10-28T07:23:00;12.40;;;7.10;;
32038;SDS011;18549;42.286;22.688;2022-10-28T07:25:27;24.30;;;9.73;;
32038;SDS011;18549;42.286;22.688;2022-10-28T07:27:55;29.53;;;12.40;;
32038;SDS011;18549;42.286;22.688;2022-10-28T07:30:25;20.43;;;14.13;;
32038;SDS011;18549;42.286;22.688;2022-10-28T07:32:53;20.80;;;11.60;;
32038;SDS011;18549;42.286;22.688;2022-10-28T07:35:20;14.67;;;7.87;;
32038;SDS011;18549;42.286;22.688;2022-10-28T07:37:49;11.37;;;7.77;;
32038;SDS011;18549;42.286;22.688;2022-10-28T07:40:16;18.40;;;7.97;;
32038;SDS011;18549;42.286;22.688;2022-10-28T07:42:43;20.93;;;11.43;;
32038;SDS011;18549;42.286;22.688;2022-10-28T07:45:10;22.67;;;10.67;;
32038;SDS011;18549;42.286;22.688;2022-10-28T07:47:40;14.73;;;9.27;;
32038;SDS011;18549;42.286;22.688;2022-10-28T07:50:08;19.53;;;9.13;;
32038;SDS011;18549;42.286;22.688;2022-10-28T07:52:35;13.50;;;8.17;;
32038;SDS011;18549;42.286;22.688;2022-10-28T07:55:06;16.47;;;8.50;;
32038;SDS011;18549;42.286;22.688;2022-10-28T07:57:33;14.57;;;9.27;;
32038;SDS011;18549;42.286;22.688;2022-10-28T08:00:02;22.07;;;9.50;;
32038;SDS011;18549;42.286;22.688;2022-10-28T08:02:33;16.63;;;10.10;;
32038;SDS011;18549;42.286;22.688;2022-10-28T08:05:03;17.67;;;10.27;;
32038;SDS011;18549;42.286;22.688;2022-10-28T08:07:30;21.23;;;10.07;;
32038;SDS011;18549;42.286;22.688;2022-10-28T08:09:57;19.80;;;11.37;;
32038;SDS011;18549;42.286;22.688;2022-10-28T08:12:26;13.73;;;10.00;;
32038;SDS011;18549;42.286;22.688;2022-10-28T08:14:54;17.60;;;11.13;;
32038;SDS011;18549;42.286;22.688;2022-10-28T08:17:23;33.58;;;15.02;;
32038;SDS011;18549;42.286;22.688;2022-10-28T08:19:52;23.83;;;12.20;;
32038;SDS011;18549;42.286;22.688;2022-10-28T08:22:22;21.83;;;11.07;;
32038;SDS011;18549;42.286;22.688;2022-10-28T08:24:48;16.40;;;11.50;;
32038;SDS011;18549;42.286;22.688;2022-10-28T08:27:15;23.67;;;12.00;;
32038;SDS011;18549;42.286;22.688;2022-10-28T08:29:43;18.33;;;11.80;;
32038;SDS011;18549;42.286;22.688;2022-10-28T08:32:10;22.40;;;12.73;;
32038;SDS011;18549;42.286;22.688;2022-10-28T08:34:37;27.60;;;11.13;;
32038;SDS011;18549;42.286;22.688;2022-10-28T08:37:06;18.80;;;10.50;;
32038;SDS011;18549;42.286;22.688;2022-10-28T08:39:33;20.58;;;12.00;;
32038;SDS011;18549;42.286;22.688;2022-10-28T08:42:05;20.43;;;11.73;;
32038;SDS011;18549;42.286;22.688;2022-10-28T08:47:46;18.25;;;11.50;;
32038;SDS011;18549;42.286;22.688;2022-10-28T08:50:23;21.15;;;9.95;;
32038;SDS011;18549;42.286;22.688;2022-10-28T08:52:56;20.40;;;10.57;;
32038;SDS011;18549;42.286;22.688;2022-10-28T08:55:27;20.83;;;9.97;;
32038;SDS011;18549;42.286;22.688;2022-10-28T08:58:01;18.65;;;9.40;;
32038;SDS011;18549;42.286;22.688;2022-10-28T09:00:33;26.48;;;9.50;;
32038;SDS011;18549;42.286;22.688;2022-10-28T09:05:52;20.23;;;8.68;;
32038;SDS011;18549;42.286;22.688;2022-10-28T09:08:22;25.53;;;8.40;;
32038;SDS011;18549;42.286;22.688;2022-10-28T09:11:00;20.15;;;7.57;;
32038;SDS011;18549;42.286;22.688;2022-10-28T09:13:42;21.48;;;7.65;;
32038;SDS011;18549;42.286;22.688;2022-10-28T09:16:20;10.30;;;6.62;;
32038;SDS011;18549;42.286;22.688;2022-10-28T09:19:03;15.07;;;6.47;;
32038;SDS011;18549;42.286;22.688;2022-10-28T09:21:41;14.38;;;6.50;;
32038;SDS011;18549;42.286;22.688;2022-10-28T09:24:13;14.13;;;7.40;;
32038;SDS011;18549;42.286;22.688;2022-10-28T09:26:50;12.02;;;6.70;;
32038;SDS011;18549;42.286;22.688;2022-10-28T09:29:27;10.88;;;6.18;;
32038;SDS011;18549;42.286;22.688;2022-10-28T09:32:07;20.90;;;7.12;;
32038;SDS011;18549;42.286;22.688;2022-10-28T09:34:43;16.65;;;6.30;;
32038;SDS011;18549;42.286;22.688;2022-10-28T09:37:13;14.18;;;6.55;;
32038;SDS011;18549;42.286;22.688;2022-10-28T09:39:44;8.73;;;5.40;;
32038;SDS011;18549;42.286;22.688;2022-10-28T09:42:15;10.27;;;5.37;;
32038;SDS011;18549;42.286;22.688;2022-10-28T09:44:46;11.57;;;5.68;;
32038;SDS011;18549;42.286;22.688;2022-10-28T09:47:18;13.85;;;6.22;;
32038;SDS011;18549;42.286;22.688;2022-10-28T09:49:48;12.48;;;6.07;;
32038;SDS011;18549;42.286;22.688;2022-10-28T09:52:20;13.05;;;5.45;;
32038;SDS011;18549;42.286;22.688;2022-10-28T09:54:50;19.77;;;7.75;;
32038;SDS011;18549;42.286;22.688;2022-10-28T09:57:27;9.63;;;4.70;;
32038;SDS011;18549;42.286;22.688;2022-10-28T09:59:57;13.68;;;4.40;;
32038;SDS011;18549;42.286;22.688;2022-10-28T10:02:25;8.93;;;2.90;;
32038;SDS011;18549;42.286;22.688;2022-10-28T10:04:58;8.80;;;3.10;;
32038;SDS011;18549;42.286;22.688;2022-10-28T10:07:31;7.90;;;3.00;;
32038;SDS011;18549;42.286;22.688;2022-10-28T10:10:02;4.47;;;3.00;;
32038;SDS011;18549;42.286;22.688;2022-10-28T10:12:36;5.43;;;3.00;;
32038;SDS011;18549;42.286;22.688;2022-10-28T10:15:05;5.03;;;2.67;;
32038;SDS011;18549;42.286;22.688;2022-10-28T10:17:42;4.82;;;2.67;;
32038;SDS011;18549;42.286;22.688;2022-10-28T10:20:14;6.90;;;3.30;;
32038;SDS011;18549;42.286;22.688;2022-10-28T10:22:42;12.50;;;2.50;;
32038;SDS011;18549;42.286;22.688;2022-10-28T10:25:24;6.60;;;3.60;;
32038;SDS011;18549;42.286;22.688;2022-10-28T10:27:56;7.10;;;3.28;;
32038;SDS011;18549;42.286;22.688;2022-10-28T10:30:27;3.83;;;2.78;;
32038;SDS011;18549;42.286;22.688;2022-10-28T10:32:56;5.82;;;3.05;;
32038;SDS011;18549;42.286;22.688;2022-10-28T10:35:31;4.57;;;2.10;;
32038;SDS011;18549;42.286;22.688;2022-10-28T10:38:00;3.67;;;2.08;;
32038;SDS011;18549;42.286;22.688;2022-10-28T10:40:29;4.65;;;1.95;;
32038;SDS011;18549;42.286;22.688;2022-10-28T10:43:13;4.97;;;2.30;;
32038;SDS011;18549;42.286;22.688;2022-10-28T10:45:47;7.22;;;2.10;;
32038;SDS011;18549;42.286;22.688;2022-10-28T10:48:17;4.93;;;2.50;;
32038;SDS011;18549;42.286;22.688;2022-10-28T10:50:46;16.92;;;4.00;;
32038;SDS011;18549;42.286;22.688;2022-10-28T10:53:20;7.43;;;3.35;;
32038;SDS011;18549;42.286;22.688;2022-10-28T10:55:56;6.18;;;2.90;;
32038;SDS011;18549;42.286;22.688;2022-10-28T10:58:27;5.15;;;2.53;;
32038;SDS011;18549;42.286;22.688;2022-10-28T11:00:58;5.22;;;2.50;;
32038;SDS011;18549;42.286;22.688;2022-10-28T11:03:34;3.42;;;2.12;;
32038;SDS011;18549;42.286;22.688;2022-10-28T11:06:06;5.80;;;2.60;;
32038;SDS011;18549;42.286;22.688;2022-10-28T11:08:36;3.85;;;2.28;;
32038;SDS011;18549;42.286;22.688;2022-10-28T11:11:10;5.07;;;2.20;;
32038;SDS011;18549;42.286;22.688;2022-10-28T11:13:38;4.78;;;2.28;;
32038;SDS011;18549;42.286;22.688;2022-10-28T11:16:10;5.30;;;2.15;;
32038;SDS011;18549;42.286;22.688;2022-10-28T11:18:46;4.30;;;2.20;;
32038;SDS011;18549;42.286;22.688;2022-10-28T11:24:12;3.70;;;2.50;;
32038;SDS011;18549;42.286;22.688;2022-10-28T11:26:54;4.65;;;2.30;;
32038;SDS011;18549;42.286;22.688;2022-10-28T11:29:27;15.25;;;5.78;;
32038;SDS011;18549;42.286;22.688;2022-10-28T11:34:58;11.12;;;4.18;;
32038;SDS011;18549;42.286;22.688;2022-10-28T11:37:45;6.78;;;2.47;;
32038;SDS011;18549;42.286;22.688;2022-10-28T11:40:26;5.68;;;2.25;;
32038;SDS011;18549;42.286;22.688;2022-10-28T11:43:06;3.47;;;2.35;;
32038;SDS011;18549;42.286;22.688;2022-10-28T11:45:44;7.53;;;1.95;;
32038;SDS011;18549;42.286;22.688;2022-10-28T11:48:21;3.30;;;1.85;;
32038;SDS011;18549;42.286;22.688;2022-10-28T11:51:11;7.18;;;2.85;;
32038;SDS011;18549;42.286;22.688;2022-10-28T11:54:02;6.75;;;1.87;;
32038;SDS011;18549;42.286;22.688;2022-10-28T11:56:44;3.83;;;1.98;;
32038;SDS011;18549;42.286;22.688;2022-10-28T12:02:32;5.53;;;2.12;;
32038;SDS011;18549;42.286;22.688;2022-10-28T12:05:09;3.55;;;2.17;;
32038;SDS011;18549;42.286;22.688;2022-10-28T12:07:52;4.03;;;2.42;;
32038;SDS011;18549;42.286;22.688;2022-10-28T12:10:34;6.45;;;1.98;;
32038;SDS011;18549;42.286;22.688;2022-10-28T12:13:10;5.05;;;2.60;;
32038;SDS011;18549;42.286;22.688;2022-10-28T12:15:45;3.20;;;2.00;;
32038;SDS011;18549;42.286;22.688;2022-10-28T12:18:20;3.47;;;1.98;;
32038;SDS011;18549;42.286;22.688;2022-10-28T12:20:54;4.12;;;2.22;;
32038;SDS011;18549;42.286;22.688;2022-10-28T12:23:24;3.90;;;2.22;;
32038;SDS011;18549;42.286;22.688;2022-10-28T12:25:57;5.28;;;2.83;;
32038;SDS011;18549;42.286;22.688;2022-10-28T12:28:26;7.15;;;2.55;;
32038;SDS011;18549;42.286;22.688;2022-10-28T12:30:58;4.90;;;2.10;;
32038;SDS011;18549;42.286;22.688;2022-10-28T12:33:27;3.53;;;2.00;;
32038;SDS011;18549;42.286;22.688;2022-10-28T12:36:11;7.85;;;2.33;;
32038;SDS011;18549;42.286;22.688;2022-10-28T12:38:44;4.53;;;1.80;;
32038;SDS011;18549;42.286;22.688;2022-10-28T12:41:20;5.32;;;2.22;;
32038;SDS011;18549;42.286;22.688;2022-10-28T12:43:50;3.12;;;1.95;;
32038;SDS011;18549;42.286;22.688;2022-10-28T12:46:22;6.25;;;2.00;;
32038;SDS011;18549;42.286;22.688;2022-10-28T12:48:57;6.47;;;2.35;;
32038;SDS011;18549;42.286;22.688;2022-10-28T12:51:32;2.80;;;1.80;;
32038;SDS011;18549;42.286;22.688;2022-10-28T12:54:13;3.92;;;1.70;;
32038;SDS011;18549;42.286;22.688;2022-10-28T12:56:53;3.83;;;2.22;;
32038;SDS011;18549;42.286;22.688;2022-10-28T12:59:28;4.28;;;1.52;;
32038;SDS011;18549;42.286;22.688;2022-10-28T13:02:00;5.12;;;1.60;;
32038;SDS011;18549;42.286;22.688;2022-10-28T13:04:29;6.43;;;1.65;;
32038;SDS011;18549;42.286;22.688;2022-10-28T13:07:01;3.33;;;1.77;;
32038;SDS011;18549;42.286;22.688;2022-10-28T13:09:47;3.70;;;1.48;;
32038;SDS011;18549;42.286;22.688;2022-10-28T13:12:33;4.75;;;1.83;;
32038;SDS011;18549;42.286;22.688;2022-10-28T13:21:02;3.08;;;2.08;;
32038;SDS011;18549;42.286;22.688;2022-10-28T13:23:41;5.53;;;2.22;;
32038;SDS011;18549;42.286;22.688;2022-10-28T13:26:16;4.68;;;1.77;;
32038;SDS011;18549;42.286;22.688;2022-10-28T13:28:49;6.68;;;2.00;;
32038;SDS011;18549;42.286;22.688;2022-10-28T13:31:20;2.72;;;1.77;;
32038;SDS011;18549;42.286;22.688;2022-10-28T13:33:51;3.92;;;1.48;;
32038;SDS011;18549;42.286;22.688;2022-10-28T13:36:24;2.83;;;1.73;;
32038;SDS011;18549;42.286;22.688;2022-10-28T13:38:52;4.12;;;1.77;;
32038;SDS011;18549;42.286;22.688;2022-10-28T13:50:08;4.00;;;1.85;;
32038;SDS011;18549;42.286;22.688;2022-10-28T13:59:17;5.20;;;1.83;;
32038;SDS011;18549;42.286;22.688;2022-10-28T14:02:14;9.40;;;1.98;;
32038;SDS011;18549;42.286;22.688;2022-10-28T14:04:52;4.22;;;2.10;;
32038;SDS011;18549;42.286;22.688;2022-10-28T14:07:21;4.60;;;2.80;;
32038;SDS011;18549;42.286;22.688;2022-10-28T14:09:56;16.67;;;3.78;;
32038;SDS011;18549;42.286;22.688;2022-10-28T14:12:33;6.68;;;1.92;;
32038;SDS011;18549;42.286;22.688;2022-10-28T14:15:20;6.45;;;2.05;;
32038;SDS011;18549;42.286;22.688;2022-10-28T14:17:50;3.28;;;1.92;;
32038;SDS011;18549;42.286;22.688;2022-10-28T14:20:27;3.90;;;1.95;;
32038;SDS011;18549;42.286;22.688;2022-10-28T14:23:00;8.13;;;2.85;;
32038;SDS011;18549;42.286;22.688;2022-10-28T14:26:11;3.72;;;2.03;;
32038;SDS011;18549;42.286;22.688;2022-10-28T14:28:53;5.50;;;2.28;;
32038;SDS011;18549;42.286;22.688;2022-10-28T14:31:52;3.28;;;2.05;;
32038;SDS011;18549;42.286;22.688;2022-10-28T14:34:30;5.62;;;2.15;;
32038;SDS011;18549;42.286;22.688;2022-10-28T14:40:22;4.15;;;1.92;;
32038;SDS011;18549;42.286;22.688;2022-10-28T14:42:58;4.57;;;2.72;;
32038;SDS011;18549;42.286;22.688;2022-10-28T14:45:41;24.90;;;3.72;;
32038;SDS011;18549;42.286;22.688;2022-10-28T14:48:31;8.70;;;2.42;;
32038;SDS011;18549;42.286;22.688;2022-10-28T14:51:11;8.38;;;2.97;;
32038;SDS011;18549;42.286;22.688;2022-10-28T14:53:41;8.48;;;2.55;;
32038;SDS011;18549;42.286;22.688;2022-10-28T14:56:15;13.55;;;8.90;;
32038;SDS011;18549;42.286;22.688;2022-10-28T14:58:46;8.15;;;4.28;;
32038;SDS011;18549;42.286;22.688;2022-10-28T15:01:18;6.00;;;3.53;;
32038;SDS011;18549;42.286;22.688;2022-10-28T15:03:51;18.17;;;8.43;;
32038;SDS011;18549;42.286;22.688;2022-10-28T15:06:22;13.73;;;4.65;;
32038;SDS011;18549;42.286;22.688;2022-10-28T15:08:54;13.95;;;7.65;;
32038;SDS011;18549;42.286;22.688;2022-10-28T15:11:22;6.87;;;5.20;;
32038;SDS011;18549;42.286;22.688;2022-10-28T15:13:50;21.62;;;7.55;;
32038;SDS011;18549;42.286;22.688;2022-10-28T15:16:19;14.20;;;5.10;;
32038;SDS011;18549;42.286;22.688;2022-10-28T15:18:47;5.25;;;4.30;;
32038;SDS011;18549;42.286;22.688;2022-10-28T15:21:18;8.35;;;4.65;;
32038;SDS011;18549;42.286;22.688;2022-10-28T15:23:56;17.85;;;4.25;;
32038;SDS011;18549;42.286;22.688;2022-10-28T15:26:25;13.77;;;4.03;;
32038;SDS011;18549;42.286;22.688;2022-10-28T15:28:52;22.27;;;11.40;;
32038;SDS011;18549;42.286;22.688;2022-10-28T15:31:22;29.12;;;15.25;;